Time;durP1;ratioP1;P1;durP2;ratioP2;P2;SDS_P1;SDS_P2;PMS_P1;PMS_P2;Temp;Humidity;BMP_temperature;BMP_pressure;BME280_temperature;BME280_humidity;BME280_pressure;Samples;Min_cycle;Max_cycle;Signal;HPM_P1;HPM_P2
2023/01/11 00:01:05;;;;;;;4.05;1.00;;;8.80;99.90;;;;;;4993740;28;20034;-78
2023/01/11 00:03:31;;;;;;;2.92;0.93;;;8.60;99.90;;;;;;4993587;28;20113;-78
2023/01/11 00:05:57;;;;;;;3.40;1.00;;;8.60;99.90;;;;;;4993846;28;20027;-79
2023/01/11 00:08:25;;;;;;;5.38;1.58;;;8.60;99.90;;;;;;4993451;28;20023;-79
2023/01/11 00:10:52;;;;;;;5.75;0.77;;;8.60;99.90;;;;;;4992144;28;20412;-78
2023/01/11 00:13:18;;;;;;;5.28;0.75;;;8.60;99.90;;;;;;4992235;28;20041;-77
2023/01/11 00:15:44;;;;;;;2.92;0.75;;;8.70;99.90;;;;;;4993090;28;20034;-78
2023/01/11 00:18:10;;;;;;;5.57;0.70;;;8.70;99.90;;;;;;4993632;28;20027;-78
2023/01/11 00:20:40;;;;;;;6.18;1.30;;;8.60;99.90;;;;;;4993504;28;20388;-80
2023/01/11 00:23:06;;;;;;;3.92;0.95;;;8.70;99.90;;;;;;4993158;28;20445;-78
2023/01/11 00:25:31;;;;;;;6.30;0.80;;;8.70;99.90;;;;;;4992968;28;20130;-79
2023/01/11 00:27:57;;;;;;;2.22;0.70;;;8.60;99.90;;;;;;4992962;28;20420;-76
2023/01/11 00:30:23;;;;;;;5.97;0.85;;;8.70;99.90;;;;;;4993261;28;20042;-78
2023/01/11 00:32:49;;;;;;;5.90;1.00;;;8.70;99.90;;;;;;4992422;28;20503;-77
2023/01/11 00:35:14;;;;;;;5.22;1.13;;;8.80;99.90;;;;;;4992857;28;20039;-77
2023/01/11 00:37:40;;;;;;;4.53;0.98;;;8.70;99.90;;;;;;4992891;28;20519;-79
2023/01/11 00:40:07;;;;;;;4.80;0.90;;;8.70;99.90;;;;;;4993176;28;20425;-79
2023/01/11 00:48:04;;;;;;;2.58;0.98;;;8.80;99.90;;;;;;4992875;28;20074;-79
2023/01/11 00:50:33;;;;;;;2.47;0.70;;;8.80;99.90;;;;;;4993197;28;20342;-80
2023/01/11 00:52:59;;;;;;;2.67;1.00;;;8.80;99.90;;;;;;4992049;28;20424;-78
2023/01/11 00:55:25;;;;;;;5.30;0.82;;;8.80;99.90;;;;;;4991704;28;20117;-78
2023/01/11 00:57:51;;;;;;;1.52;0.60;;;8.90;99.90;;;;;;4992587;28;20031;-77
2023/01/11 01:00:18;;;;;;;2.63;0.50;;;8.80;99.90;;;;;;4992402;28;20041;-78
2023/01/11 01:02:44;;;;;;;1.77;0.60;;;8.90;99.90;;;;;;4993173;28;20015;-78
2023/01/11 01:05:11;;;;;;;2.45;0.60;;;9.00;99.90;;;;;;4992517;28;20036;-79
2023/01/11 01:07:37;;;;;;;1.90;0.70;;;8.80;99.90;;;;;;4992242;28;20460;-79
2023/01/11 01:10:04;;;;;;;1.92;0.70;;;8.80;99.90;;;;;;4991156;28;20121;-78
2023/01/11 01:15:17;;;;;;;1.58;0.52;;;8.90;99.90;;;;;;4992795;28;20049;-78
2023/01/11 01:17:45;;;;;;;2.15;0.70;;;8.80;99.90;;;;;;4991536;28;20469;-78
2023/01/11 01:20:11;;;;;;;4.03;0.60;;;8.80;99.90;;;;;;4991058;28;20035;-77
2023/01/11 01:22:37;;;;;;;1.05;0.50;;;8.80;99.90;;;;;;4991159;28;20030;-77
2023/01/11 01:25:03;;;;;;;2.70;1.00;;;8.90;99.90;;;;;;4991838;28;20368;-77
2023/01/11 01:27:30;;;;;;;5.13;0.90;;;8.90;99.90;;;;;;4991862;28;20074;-79
2023/01/11 01:29:55;;;;;;;1.48;0.60;;;9.00;99.90;;;;;;4991410;28;20018;-78
2023/01/11 01:32:21;;;;;;;4.90;1.67;;;9.00;99.90;;;;;;4991901;28;20430;-78
2023/01/11 01:34:48;;;;;;;0.90;0.70;;;8.90;99.90;;;;;;4991772;28;20031;-79
2023/01/11 01:37:14;;;;;;;2.30;0.60;;;8.80;99.90;;;;;;4991583;28;20122;-76
2023/01/11 01:39:40;;;;;;;2.88;0.57;;;8.80;99.90;;;;;;4991617;28;20461;-79
2023/01/11 01:42:13;;;;;;;3.88;0.60;;;8.80;99.90;;;;;;4992195;28;20030;-79
2023/01/11 01:44:59;;;;;;;1.77;0.70;;;8.80;99.90;;;;;;4991702;28;20058;-80
2023/01/11 01:47:44;;;;;;;3.33;0.82;;;8.90;99.90;;;;;;4990642;28;20053;-78
2023/01/11 01:50:25;;;;;;;4.57;0.80;;;8.80;99.90;;;;;;4990444;28;20114;-78
2023/01/11 01:52:58;;;;;;;1.73;0.50;;;8.90;99.90;;;;;;4990352;28;20425;-77
2023/01/11 01:55:34;;;;;;;2.92;0.82;;;8.80;99.90;;;;;;4991510;28;20030;-78
2023/01/11 01:58:04;;;;;;;2.58;0.70;;;8.90;99.90;;;;;;4991648;28;20022;-75
2023/01/11 02:00:30;;;;;;;2.70;0.65;;;8.80;99.90;;;;;;4990415;28;20037;-76
2023/01/11 02:02:59;;;;;;;2.22;0.60;;;8.80;99.90;;;;;;4991750;28;20461;-76
2023/01/11 02:05:25;;;;;;;3.47;0.75;;;8.80;99.90;;;;;;4991541;28;20054;-77
2023/01/11 02:07:53;;;;;;;1.70;0.60;;;8.90;99.90;;;;;;4990220;28;20480;-76
2023/01/11 02:10:21;;;;;;;0.85;0.47;;;8.70;99.90;;;;;;4992143;28;20559;-78
2023/01/11 02:12:58;;;;;;;4.13;0.85;;;8.80;99.90;;;;;;4994529;28;20062;-80
2023/01/11 02:15:24;;;;;;;5.53;0.70;;;8.80;99.90;;;;;;4995550;28;20023;-77
2023/01/11 02:17:50;;;;;;;3.30;0.60;;;8.80;99.90;;;;;;4994656;28;20113;-77
2023/01/11 02:20:38;;;;;;;4.07;0.90;;;8.80;99.90;;;;;;4994239;28;20477;-77
2023/01/11 02:23:10;;;;;;;3.13;0.50;;;8.80;99.90;;;;;;4994985;28;20080;-78
2023/01/11 02:25:58;;;;;;;3.38;0.77;;;8.80;99.90;;;;;;4995011;28;20464;-78
2023/01/11 02:28:38;;;;;;;0.43;0.40;;;8.80;99.90;;;;;;4995118;28;20070;-78
2023/01/11 02:31:23;;;;;;;2.78;0.50;;;8.80;99.90;;;;;;4993944;28;20027;-77
2023/01/11 02:34:07;;;;;;;2.45;0.68;;;8.80;99.90;;;;;;4993955;28;20093;-80
2023/01/11 02:36:47;;;;;;;3.08;0.80;;;8.80;99.90;;;;;;5008947;28;20087;-77
2023/01/11 02:39:49;;;;;;;5.20;1.08;;;8.80;99.90;;;;;;5014840;28;20030;-76
2023/01/11 02:45:23;;;;;;;1.23;0.52;;;8.80;99.90;;;;;;5014560;28;20367;-80
2023/01/11 02:47:59;;;;;;;1.45;0.60;;;8.80;99.90;;;;;;5014647;28;20444;-79
2023/01/11 02:51:06;;;;;;;1.83;0.85;;;8.90;99.90;;;;;;5013184;28;20037;-77
2023/01/11 02:53:41;;;;;;;0.93;0.50;;;8.90;99.90;;;;;;5008306;28;20026;-80
2023/01/11 02:56:10;;;;;;;3.72;0.70;;;8.90;99.90;;;;;;5014305;28;20034;-80
2023/01/11 02:58:40;;;;;;;6.38;0.68;;;8.90;99.90;;;;;;5014256;28;20038;-79
2023/01/11 03:01:06;;;;;;;2.42;0.80;;;8.90;99.90;;;;;;5013935;28;20026;-78
2023/01/11 03:03:32;;;;;;;2.45;0.95;;;8.90;99.90;;;;;;5012970;28;20022;-78
2023/01/11 03:06:10;;;;;;;1.70;0.65;;;8.90;99.90;;;;;;5014434;28;20084;-78
2023/01/11 03:09:12;;;;;;;2.05;0.65;;;9.00;99.90;;;;;;5012947;28;20338;-78
2023/01/11 03:15:03;;;;;;;2.35;1.00;;;9.10;99.90;;;;;;5014196;28;20072;-79
2023/01/11 03:17:43;;;;;;;3.13;0.80;;;9.10;99.90;;;;;;5013592;28;20037;-78
2023/01/11 03:20:20;;;;;;;0.75;0.57;;;9.10;99.90;;;;;;5012659;28;20034;-78
2023/01/11 03:23:01;;;;;;;2.42;0.70;;;9.10;99.90;;;;;;5012813;28;20034;-77
2023/01/11 03:25:40;;;;;;;4.40;0.85;;;9.10;99.90;;;;;;5013550;28;20049;-79
2023/01/11 03:28:25;;;;;;;1.23;0.70;;;9.20;99.90;;;;;;5013510;28;20060;-77
2023/01/11 03:30:56;;;;;;;0.95;0.50;;;9.20;99.90;;;;;;5012427;28;20136;-77
2023/01/11 03:33:33;;;;;;;1.75;1.00;;;9.20;99.90;;;;;;5012319;28;20482;-77
2023/01/11 03:36:03;;;;;;;1.55;0.52;;;9.20;99.90;;;;;;5013937;28;20026;-75
2023/01/11 03:38:59;;;;;;;2.92;0.43;;;9.20;99.90;;;;;;5013789;28;20030;-77
2023/01/11 03:41:29;;;;;;;2.28;0.43;;;9.20;99.90;;;;;;5012555;28;20049;-78
2023/01/11 03:43:58;;;;;;;1.52;0.47;;;9.30;99.90;;;;;;5013273;28;20033;-77
2023/01/11 03:46:33;;;;;;;2.55;0.60;;;9.30;99.90;;;;;;5013391;28;20042;-78
2023/01/11 03:49:08;;;;;;;2.95;0.63;;;9.30;99.90;;;;;;5013200;28;20498;-76
2023/01/11 03:51:41;;;;;;;1.05;0.50;;;9.30;99.90;;;;;;5013177;28;20026;-77
2023/01/11 03:54:09;;;;;;;2.97;0.50;;;9.40;99.90;;;;;;5013717;28;20065;-78
2023/01/11 03:57:04;;;;;;;3.95;0.55;;;9.40;99.90;;;;;;5013128;28;20496;-78
2023/01/11 03:59:29;;;;;;;2.00;0.50;;;9.40;99.90;;;;;;5011802;28;20054;-77
2023/01/11 04:01:56;;;;;;;2.42;0.85;;;9.50;99.90;;;;;;5012966;28;20121;-77
2023/01/11 04:04:23;;;;;;;1.65;0.70;;;9.40;99.90;;;;;;5011890;28;20464;-78
2023/01/11 04:06:48;;;;;;;1.95;0.75;;;9.50;99.90;;;;;;5011799;28;20385;-77
2023/01/11 04:09:14;;;;;;;1.23;0.50;;;9.50;99.90;;;;;;5012095;28;20018;-78
2023/01/11 04:11:40;;;;;;;2.53;0.52;;;9.50;99.90;;;;;;5011746;28;20045;-77
2023/01/11 04:14:06;;;;;;;2.05;0.60;;;9.50;99.90;;;;;;5013302;28;20030;-79
2023/01/11 04:16:32;;;;;;;3.95;0.60;;;9.50;99.90;;;;;;5011761;28;20084;-78
2023/01/11 04:18:57;;;;;;;4.05;1.08;;;9.50;99.90;;;;;;5011779;28;20034;-77
2023/01/11 04:21:23;;;;;;;1.30;0.77;;;9.50;99.90;;;;;;5011981;28;20037;-78
2023/01/11 04:23:48;;;;;;;1.27;0.60;;;9.50;99.90;;;;;;5012963;28;20044;-77
2023/01/11 04:26:16;;;;;;;2.03;0.82;;;9.60;99.90;;;;;;5012598;28;20042;-78
2023/01/11 04:28:43;;;;;;;1.33;0.60;;;9.60;99.90;;;;;;5012656;28;20117;-77
2023/01/11 04:31:08;;;;;;;1.00;0.55;;;9.60;99.90;;;;;;5012497;28;20030;-79
2023/01/11 04:33:34;;;;;;;1.60;0.63;;;9.60;99.90;;;;;;5012399;28;20487;-78
2023/01/11 04:36:07;;;;;;;3.25;0.85;;;9.60;99.90;;;;;;5013248;28;20025;-78
2023/01/11 04:38:34;;;;;;;0.90;0.65;;;9.50;99.90;;;;;;5012650;28;20038;-78
2023/01/11 04:43:45;;;;;;;2.10;0.70;;;9.70;99.90;;;;;;5012478;28;20041;-80
2023/01/11 04:46:10;;;;;;;1.08;0.80;;;9.70;99.90;;;;;;5012140;28;20025;-79
2023/01/11 04:48:40;;;;;;;1.55;0.68;;;9.70;99.90;;;;;;5011388;28;20121;-78
2023/01/11 04:51:07;;;;;;;2.55;0.52;;;9.70;99.90;;;;;;5012626;28;20101;-79
2023/01/11 04:53:33;;;;;;;2.83;0.73;;;9.70;99.90;;;;;;5011155;28;20034;-79
2023/01/11 04:56:04;;;;;;;1.58;0.65;;;9.70;99.90;;;;;;5012018;28;20026;-77
2023/01/11 04:58:30;;;;;;;2.08;0.50;;;9.70;99.90;;;;;;5011644;28;20048;-78
2023/01/11 05:00:59;;;;;;;0.60;0.50;;;9.80;99.90;;;;;;5012044;28;20088;-81
2023/01/11 05:03:25;;;;;;;1.08;0.70;;;9.80;99.90;;;;;;5012029;28;20432;-80
2023/01/11 05:05:58;;;;;;;1.13;0.73;;;9.90;99.90;;;;;;5012219;28;20025;-81
2023/01/11 05:08:24;;;;;;;2.67;0.80;;;9.80;99.90;;;;;;5010632;28;20333;-78
2023/01/11 05:10:52;;;;;;;1.13;0.60;;;9.80;99.90;;;;;;5010707;28;20406;-79
2023/01/11 05:13:18;;;;;;;1.00;0.70;;;9.80;99.90;;;;;;5010757;28;20191;-78
2023/01/11 05:15:43;;;;;;;3.65;0.60;;;9.80;99.90;;;;;;5010501;28;20105;-79
2023/01/11 05:18:10;;;;;;;1.27;0.73;;;9.80;99.90;;;;;;5011008;28;20112;-78
2023/01/11 05:20:36;;;;;;;3.35;0.63;;;9.90;99.90;;;;;;5010670;28;20460;-80
2023/01/11 05:23:02;;;;;;;1.27;0.57;;;9.90;99.90;;;;;;5010803;28;20140;-79
2023/01/11 05:25:27;;;;;;;2.15;0.60;;;9.90;99.90;;;;;;5011668;28;20042;-77
2023/01/11 05:27:53;;;;;;;2.38;0.70;;;9.90;99.90;;;;;;5010358;28;20042;-78
2023/01/11 05:30:19;;;;;;;1.00;0.70;;;10.00;99.90;;;;;;5010505;28;20030;-79
2023/01/11 05:32:44;;;;;;;1.92;0.68;;;9.80;99.90;;;;;;5012036;28;20481;-78
2023/01/11 05:35:10;;;;;;;2.22;0.75;;;9.90;99.90;;;;;;5010435;28;20045;-79
2023/01/11 05:37:37;;;;;;;2.58;0.70;;;9.80;99.90;;;;;;5011291;28;20472;-78
2023/01/11 05:40:07;;;;;;;2.85;0.70;;;9.90;99.90;;;;;;5011474;28;20372;-77
2023/01/11 05:42:32;;;;;;;2.63;0.65;;;9.80;99.90;;;;;;5010184;28;20387;-78
2023/01/11 05:47:42;;;;;;;1.40;0.65;;;9.80;99.90;;;;;;5011282;28;20045;-78
2023/01/11 05:50:09;;;;;;;4.10;0.73;;;9.90;99.90;;;;;;5011346;28;20022;-78
2023/01/11 05:52:34;;;;;;;4.68;0.90;;;9.90;99.90;;;;;;5011620;28;20080;-78
2023/01/11 05:55:00;;;;;;;1.50;0.85;;;10.10;99.90;;;;;;5011544;28;20034;-79
2023/01/11 05:57:25;;;;;;;3.05;0.70;;;9.90;99.90;;;;;;5011268;28;20022;-78
2023/01/11 05:59:51;;;;;;;2.83;0.98;;;9.90;99.90;;;;;;5011682;28;20033;-80
2023/01/11 06:02:17;;;;;;;2.22;0.60;;;9.90;99.90;;;;;;5011597;28;20050;-79
2023/01/11 06:04:42;;;;;;;2.17;0.57;;;10.00;99.90;;;;;;5009833;28;20034;-80
2023/01/11 06:07:08;;;;;;;1.95;0.75;;;9.90;99.90;;;;;;5009906;28;20033;-83
2023/01/11 06:09:34;;;;;;;2.17;0.70;;;10.00;99.90;;;;;;5010422;28;20072;-79
2023/01/11 06:12:00;;;;;;;3.25;0.63;;;9.90;99.90;;;;;;5011443;28;20476;-79
2023/01/11 06:14:26;;;;;;;1.00;0.80;;;10.00;99.90;;;;;;5010765;28;20033;-79
2023/01/11 06:16:52;;;;;;;0.95;0.50;;;10.00;99.90;;;;;;5011165;28;20034;-80
2023/01/11 06:19:17;;;;;;;1.48;0.70;;;9.90;99.90;;;;;;5011116;28;20037;-80
2023/01/11 06:21:43;;;;;;;1.60;0.50;;;9.90;99.90;;;;;;5010816;28;20029;-82
2023/01/11 06:24:09;;;;;;;3.53;0.88;;;10.00;99.90;;;;;;5011034;28;20374;-84
2023/01/11 06:26:34;;;;;;;1.35;0.70;;;10.00;99.90;;;;;;5011725;28;20058;-81
2023/01/11 06:29:00;;;;;;;0.90;0.60;;;10.00;99.90;;;;;;5009950;28;20210;-81
2023/01/11 06:31:25;;;;;;;0.82;0.50;;;10.00;99.90;;;;;;5009691;28;20053;-78
2023/01/11 06:33:51;;;;;;;3.13;0.60;;;10.00;99.90;;;;;;5010435;28;20522;-78
2023/01/11 06:36:17;;;;;;;1.70;0.60;;;10.00;99.90;;;;;;5010592;28;20037;-78
2023/01/11 06:38:43;;;;;;;1.75;0.70;;;10.00;99.90;;;;;;5009988;28;20500;-81
2023/01/11 06:41:10;;;;;;;1.70;0.73;;;10.00;99.90;;;;;;5010370;28;20038;-79
2023/01/11 06:43:39;;;;;;;1.60;0.70;;;10.10;99.90;;;;;;5010672;28;20044;-79
2023/01/11 06:46:10;;;;;;;1.73;0.40;;;10.20;99.90;;;;;;5010108;28;20026;-78
2023/01/11 06:48:35;;;;;;;1.23;0.45;;;10.10;99.90;;;;;;5009893;28;20026;-78
2023/01/11 06:51:01;;;;;;;3.45;0.68;;;10.10;99.90;;;;;;5010793;28;20026;-80
2023/01/11 06:53:28;;;;;;;1.08;0.63;;;10.10;99.90;;;;;;5010398;28;20375;-79
2023/01/11 06:55:55;;;;;;;0.93;0.40;;;10.20;99.90;;;;;;5009218;28;20027;-80
2023/01/11 06:58:24;;;;;;;2.58;0.70;;;10.10;99.90;;;;;;5013047;28;20057;-81
2023/01/11 07:00:51;;;;;;;1.55;0.65;;;10.10;99.90;;;;;;5013789;28;20361;-81
2023/01/11 07:03:19;;;;;;;2.10;0.60;;;10.10;99.90;;;;;;5014059;28;20472;-79
2023/01/11 07:05:45;;;;;;;1.85;0.60;;;10.10;99.90;;;;;;5014451;28;20443;-81
2023/01/11 07:08:11;;;;;;;1.15;0.68;;;10.10;99.90;;;;;;5013831;28;20088;-80
2023/01/11 07:10:37;;;;;;;1.55;0.60;;;10.10;99.90;;;;;;5013875;28;20115;-80
2023/01/11 07:13:03;;;;;;;0.95;0.47;;;10.30;99.90;;;;;;5012791;28;20127;-80
2023/01/11 07:15:29;;;;;;;5.15;1.92;;;10.20;99.90;;;;;;5013661;28;20053;-81
2023/01/11 07:17:56;;;;;;;1.50;1.10;;;10.20;99.90;;;;;;5014168;28;20326;-81
2023/01/11 07:20:24;;;;;;;1.23;0.85;;;10.20;99.90;;;;;;5013751;28;20030;-80
2023/01/11 07:22:49;;;;;;;0.55;0.40;;;10.20;99.90;;;;;;5013551;28;20046;-81
2023/01/11 07:25:15;;;;;;;0.63;0.47;;;10.20;99.90;;;;;;5011835;28;20380;-81
2023/01/11 07:27:41;;;;;;;0.57;0.45;;;10.20;99.90;;;;;;5011921;28;20042;-80
2023/01/11 07:30:07;;;;;;;2.38;0.93;;;10.20;99.90;;;;;;5013027;28;20403;-81
2023/01/11 07:32:34;;;;;;;2.05;1.00;;;10.20;99.90;;;;;;5013392;28;20376;-81
2023/01/11 07:35:00;;;;;;;1.55;0.70;;;10.30;99.90;;;;;;5013530;28;20096;-81
2023/01/11 07:37:26;;;;;;;8.35;3.67;;;10.20;99.90;;;;;;5013486;28;20054;-80
2023/01/11 07:39:52;;;;;;;2.40;1.25;;;10.20;99.90;;;;;;5012105;28;20030;-80
2023/01/11 07:45:04;;;;;;;1.77;0.60;;;10.30;99.90;;;;;;5013886;28;20040;-80
2023/01/11 07:47:29;;;;;;;0.75;0.52;;;10.30;99.90;;;;;;5013107;28;20061;-80
2023/01/11 07:49:55;;;;;;;0.52;0.43;;;10.30;99.90;;;;;;5012323;28;20049;-81
2023/01/11 07:52:21;;;;;;;0.95;0.60;;;10.30;99.90;;;;;;5013199;28;20390;-80
2023/01/11 07:54:46;;;;;;;1.65;0.70;;;10.40;99.90;;;;;;5013618;28;20026;-80
2023/01/11 07:57:18;;;;;;;0.70;0.45;;;10.30;99.90;;;;;;5016628;28;20127;-82
2023/01/11 07:59:46;;;;;;;1.75;0.40;;;10.30;99.90;;;;;;5013364;28;20030;-79
2023/01/11 08:02:12;;;;;;;2.05;0.60;;;10.30;99.90;;;;;;5013805;28;20038;-80
2023/01/11 08:04:38;;;;;;;5.78;2.40;;;10.30;99.90;;;;;;5013375;28;20030;-80
2023/01/11 08:07:03;;;;;;;0.80;0.47;;;10.40;99.90;;;;;;5013570;28;20455;-80
2023/01/11 08:09:29;;;;;;;0.50;0.30;;;10.40;99.90;;;;;;5014484;28;20033;-81
2023/01/11 08:14:39;;;;;;;1.10;0.45;;;10.30;99.90;;;;;;5014219;28;20077;-81
2023/01/11 08:17:15;;;;;;;1.73;0.80;;;10.40;99.90;;;;;;5012569;28;20046;-80
2023/01/11 08:19:42;;;;;;;0.30;0.30;;;10.40;99.90;;;;;;5012554;28;20379;-78
2023/01/11 08:22:08;;;;;;;0.38;0.38;;;10.40;99.90;;;;;;5011457;28;20056;-80
2023/01/11 08:24:34;;;;;;;0.65;0.38;;;10.40;99.90;;;;;;5011181;28;20034;-81
2023/01/11 08:27:01;;;;;;;3.22;0.75;;;10.30;99.90;;;;;;5011606;28;20408;-80
2023/01/11 08:29:27;;;;;;;1.17;0.50;;;10.30;99.90;;;;;;5012385;28;20419;-80
2023/01/11 08:31:53;;;;;;;0.38;0.30;;;10.40;99.90;;;;;;5012403;28;20038;-82
2023/01/11 08:34:18;;;;;;;0.32;0.30;;;10.40;99.90;;;;;;5011320;28;20037;-80
2023/01/11 08:36:44;;;;;;;1.00;0.52;;;10.40;99.90;;;;;;5011230;28;20368;-81
2023/01/11 08:39:10;;;;;;;3.30;0.50;;;10.40;99.90;;;;;;5011668;28;20405;-81
2023/01/11 08:41:37;;;;;;;1.05;0.57;;;10.40;99.90;;;;;;5011772;28;20030;-81
2023/01/11 08:44:03;;;;;;;1.10;0.40;;;10.50;99.90;;;;;;5013140;28;20022;-81
2023/01/11 08:46:28;;;;;;;0.38;0.38;;;10.60;99.90;;;;;;5011567;28;20480;-81
2023/01/11 08:48:54;;;;;;;0.40;0.17;;;10.60;99.90;;;;;;5012330;28;20023;-82
2023/01/11 08:51:20;;;;;;;0.82;0.38;;;10.60;99.90;;;;;;5013091;28;20026;-80
2023/01/11 08:53:46;;;;;;;48.78;25.60;;;10.60;99.90;;;;;;5011961;28;20497;-80
2023/01/11 08:56:12;;;;;;;8.80;5.07;;;10.60;99.90;;;;;;5011202;28;20105;-80
2023/01/11 08:58:38;;;;;;;1.05;0.50;;;10.70;99.90;;;;;;5010986;28;20068;-82
2023/01/11 09:01:07;;;;;;;1.58;0.40;;;10.70;99.90;;;;;;5010966;28;20403;-81
2023/01/11 09:03:33;;;;;;;0.40;0.40;;;10.70;99.90;;;;;;5010663;28;20126;-80
2023/01/11 09:05:59;;;;;;;0.60;0.50;;;10.70;99.90;;;;;;5011661;28;20037;-82
2023/01/11 09:08:26;;;;;;;1.42;0.70;;;10.70;99.90;;;;;;5010832;28;20092;-81
2023/01/11 09:10:52;;;;;;;2.53;0.50;;;10.80;99.90;;;;;;5011246;28;20034;-83
2023/01/11 09:13:18;;;;;;;0.88;0.52;;;10.80;99.90;;;;;;5012148;28;20133;-82
2023/01/11 09:15:47;;;;;;;0.38;0.35;;;10.80;99.90;;;;;;5011358;28;20125;-83
2023/01/11 09:18:13;;;;;;;3.38;0.52;;;10.90;99.90;;;;;;5012744;28;20088;-82
2023/01/11 09:20:39;;;;;;;2.20;0.60;;;10.90;99.90;;;;;;5009832;28;20092;-83
2023/01/11 09:23:05;;;;;;;1.85;0.40;;;10.90;99.90;;;;;;5010542;28;20026;-82
2023/01/11 09:25:31;;;;;;;1.02;0.30;;;10.90;99.90;;;;;;5010305;28;20033;-82
2023/01/11 09:27:57;;;;;;;0.47;0.35;;;10.90;99.90;;;;;;5011327;28;20056;-83
2023/01/11 09:30:23;;;;;;;2.30;0.82;;;11.00;99.90;;;;;;5011922;28;20026;-82
2023/01/11 09:32:50;;;;;;;1.42;0.70;;;11.00;99.90;;;;;;5012310;28;20333;-83
2023/01/11 09:35:18;;;;;;;0.60;0.50;;;11.00;99.90;;;;;;5010352;28;20380;-81
2023/01/11 09:37:51;;;;;;;1.20;0.50;;;11.10;99.90;;;;;;5010842;28;20531;-79
2023/01/11 09:40:44;;;;;;;0.82;0.60;;;11.00;99.90;;;;;;5011416;28;20365;-80
2023/01/11 09:43:13;;;;;;;1.00;0.47;;;11.10;99.90;;;;;;5009969;28;20034;-82
2023/01/11 09:45:45;;;;;;;1.35;0.70;;;11.10;99.90;;;;;;5011016;28;20416;-81
2023/01/11 09:48:42;;;;;;;1.55;0.65;;;11.10;99.90;;;;;;5011304;28;20222;-80
2023/01/11 09:51:14;;;;;;;1.53;0.60;;;11.10;99.90;;;;;;5010976;28;20041;-81
2023/01/11 09:53:45;;;;;;;2.58;1.25;;;11.00;99.90;;;;;;5011046;28;20037;-82
2023/01/11 09:56:14;;;;;;;7.47;2.30;;;11.20;99.90;;;;;;5011186;28;20302;-77
2023/01/11 09:59:01;;;;;;;1.35;0.60;;;11.20;99.90;;;;;;5010969;28;20030;-79
2023/01/11 10:01:56;;;;;;;0.50;0.30;;;11.20;99.90;;;;;;5010989;28;20034;-81
2023/01/11 10:04:37;;;;;;;1.05;0.38;;;11.30;99.90;;;;;;5012653;28;20468;-80
2023/01/11 10:07:30;;;;;;;0.63;0.30;;;11.20;99.90;;;;;;5012464;28;20030;-80
2023/01/11 10:10:21;;;;;;;0.77;0.40;;;11.20;99.90;;;;;;5011735;28;20041;-79
2023/01/11 10:13:03;;;;;;;1.48;0.65;;;11.20;99.90;;;;;;5010869;28;20034;-79
2023/01/11 10:15:44;;;;;;;0.98;0.50;;;11.30;99.90;;;;;;5011269;28;20044;-79
2023/01/11 10:18:25;;;;;;;0.30;0.20;;;11.30;99.90;;;;;;5012712;28;20025;-77
2023/01/11 10:21:00;;;;;;;0.75;0.32;;;11.30;99.90;;;;;;5011224;28;20042;-80
2023/01/11 10:23:39;;;;;;;1.38;0.40;;;11.30;99.90;;;;;;5011861;28;20033;-80
2023/01/11 10:26:12;;;;;;;3.83;1.77;;;11.30;99.90;;;;;;5011474;28;20384;-79
2023/01/11 10:28:57;;;;;;;1.52;0.50;;;11.30;99.90;;;;;;5012486;28;20384;-79
2023/01/11 10:31:46;;;;;;;1.08;0.38;;;11.30;99.90;;;;;;5013244;28;20046;-79
2023/01/11 10:41:01;;;;;;;0.60;0.30;;;11.30;99.90;;;;;;5015962;28;20112;-81
2023/01/11 10:43:25;;;;;;;0.68;0.40;;;11.30;99.90;;;;;;5015187;28;20033;-80
2023/01/11 10:45:58;;;;;;;0.50;0.40;;;11.30;99.90;;;;;;5014285;28;20022;-79
2023/01/11 10:48:36;;;;;;;0.63;0.50;;;11.40;99.90;;;;;;5014597;28;20030;-80
2023/01/11 10:51:26;;;;;;;1.17;0.43;;;11.40;99.90;;;;;;5015346;28;20057;-80
2023/01/11 10:54:11;;;;;;;0.55;0.40;;;11.50;99.90;;;;;;5015495;28;20096;-79
2023/01/11 10:56:50;;;;;;;2.15;0.40;;;11.50;99.90;;;;;;5013724;28;20204;-81
2023/01/11 10:59:22;;;;;;;0.65;0.38;;;11.50;99.90;;;;;;5014826;28;20052;-78
2023/01/11 11:01:53;;;;;;;0.20;0.20;;;11.50;99.90;;;;;;5014172;28;20048;-83
2023/01/11 11:04:45;;;;;;;0.63;0.40;;;11.50;99.90;;;;;;5015705;28;20034;-85
2023/01/11 11:07:23;;;;;;;1.17;0.30;;;11.50;99.90;;;;;;5013846;28;20030;-82
2023/01/11 11:10:09;;;;;;;1.15;0.63;;;11.50;99.90;;;;;;5015995;28;20069;-82
2023/01/11 11:12:39;;;;;;;0.73;0.63;;;11.50;99.90;;;;;;5013574;28;20034;-82
2023/01/11 11:15:14;;;;;;;4.15;0.47;;;11.50;99.90;;;;;;5014695;28;20030;-82
2023/01/11 11:17:47;;;;;;;0.50;0.40;;;11.50;99.90;;;;;;5014262;28;20399;-82
2023/01/11 11:20:17;;;;;;;0.90;0.55;;;11.50;99.90;;;;;;5016008;28;20092;-83
2023/01/11 11:22:44;;;;;;;0.30;0.30;;;11.50;99.90;;;;;;5014485;28;20030;-83
2023/01/11 11:25:32;;;;;;;1.77;0.45;;;11.50;99.90;;;;;;5013986;28;20061;-82
2023/01/11 11:28:06;;;;;;;3.13;1.60;;;11.40;99.90;;;;;;5014266;28;20620;-83
2023/01/11 11:30:41;;;;;;;2.97;1.50;;;11.50;99.90;;;;;;5015714;28;20109;-81
2023/01/11 11:33:34;;;;;;;3.75;1.05;;;11.40;99.90;;;;;;5020425;28;20073;-81
2023/01/11 11:36:04;;;;;;;2.97;1.50;;;11.50;99.90;;;;;;5018551;28;20033;-82
2023/01/11 11:38:41;;;;;;;2.55;1.50;;;11.60;99.90;;;;;;5018448;28;20038;-82
2023/01/11 11:41:17;;;;;;;1.70;1.33;;;11.60;99.90;;;;;;5017738;28;20053;-82
2023/01/11 11:43:45;;;;;;;3.97;1.38;;;11.60;99.90;;;;;;5016606;28;20129;-81
2023/01/11 11:46:13;;;;;;;2.15;1.15;;;11.60;99.90;;;;;;5018388;28;20029;-84
2023/01/11 11:48:40;;;;;;;2.45;1.10;;;11.70;99.90;;;;;;5018606;28;20018;-81
2023/01/11 11:51:13;;;;;;;0.88;0.55;;;11.70;99.90;;;;;;5015980;28;20121;-83
2023/01/11 11:53:52;;;;;;;2.28;1.27;;;11.70;99.90;;;;;;5017702;28;20036;-84
2023/01/11 11:56:24;;;;;;;4.15;1.20;;;11.70;99.90;;;;;;5018098;28;20034;-83
2023/01/11 11:58:51;;;;;;;2.65;1.23;;;11.80;99.90;;;;;;5016636;28;20029;-84
2023/01/11 12:01:19;;;;;;;0.77;0.75;;;11.70;99.90;;;;;;5018611;28;20090;-84
2023/01/11 12:03:45;;;;;;;4.38;1.20;;;11.70;99.90;;;;;;5018240;28;20026;-83
2023/01/11 12:06:25;;;;;;;3.67;1.58;;;11.70;99.90;;;;;;5016916;28;20480;-84
2023/01/11 12:08:52;;;;;;;3.80;1.67;;;11.70;99.90;;;;;;5014848;28;20033;-84
2023/01/11 12:11:37;;;;;;;2.45;1.00;;;11.70;99.90;;;;;;5014969;28;20068;-83
2023/01/11 12:14:16;;;;;;;1.05;0.85;;;11.70;99.90;;;;;;5014268;28;20022;-85
2023/01/11 12:16:44;;;;;;;1.73;0.98;;;11.70;99.90;;;;;;5015108;28;20044;-85
2023/01/11 12:19:37;;;;;;;4.15;1.50;;;11.80;99.90;;;;;;5015103;28;20097;-85
2023/01/11 12:22:21;;;;;;;2.70;1.40;;;11.70;99.90;;;;;;5015987;28;20037;-82
2023/01/11 12:25:02;;;;;;;2.15;1.50;;;11.70;99.90;;;;;;5014511;28;20033;-83
2023/01/11 12:27:56;;;;;;;3.03;1.42;;;11.80;99.90;;;;;;5015557;28;20041;-82
2023/01/11 12:30:37;;;;;;;2.60;1.40;;;11.80;99.90;;;;;;5017357;28;20491;-83
2023/01/11 12:33:23;;;;;;;3.30;1.52;;;11.80;99.90;;;;;;5013716;28;20030;-84
2023/01/11 12:36:00;;;;;;;2.42;1.13;;;11.80;99.90;;;;;;5012701;28;20041;-84
2023/01/11 12:38:55;;;;;;;4.25;1.60;;;11.80;99.90;;;;;;5014730;28;20061;-85
2023/01/11 12:41:52;;;;;;;3.75;1.60;;;11.90;99.90;;;;;;5013753;28;20455;-86
2023/01/11 12:44:36;;;;;;;5.78;2.35;;;11.90;99.90;;;;;;5013651;28;20088;-84
2023/01/11 12:47:25;;;;;;;5.72;2.50;;;11.90;99.90;;;;;;5018015;28;20120;-86
2023/01/11 12:50:23;;;;;;;3.78;1.27;;;11.90;99.90;;;;;;5018169;28;20034;-86
2023/01/11 12:53:04;;;;;;;4.93;1.70;;;11.90;99.90;;;;;;5014037;28;20026;-88
2023/01/11 12:56:03;;;;;;;5.68;1.95;;;11.90;99.90;;;;;;5014675;28;20034;-87
2023/01/11 12:58:55;;;;;;;5.85;2.10;;;11.90;99.90;;;;;;5016434;28;20043;-87
2023/01/11 13:01:33;;;;;;;9.80;3.58;;;12.00;99.90;;;;;;5013301;28;20065;-84
2023/01/11 13:04:15;;;;;;;3.92;1.63;;;11.90;99.90;;;;;;5014034;28;20034;-85
2023/01/11 13:07:03;;;;;;;3.88;1.50;;;11.90;99.90;;;;;;5014402;28;20040;-86
2023/01/11 13:09:57;;;;;;;7.18;1.67;;;12.00;99.90;;;;;;5013910;28;20044;-87
2023/01/11 13:12:44;;;;;;;5.50;1.92;;;12.10;99.90;;;;;;5014401;28;20022;-87
2023/01/11 13:15:21;;;;;;;5.22;1.90;;;12.00;99.90;;;;;;5015293;28;20026;-87
2023/01/11 13:18:04;;;;;;;3.00;1.40;;;12.10;99.90;;;;;;5014264;28;20460;-85
2023/01/11 13:20:51;;;;;;;7.90;3.08;;;12.20;99.90;;;;;;5014259;28;20037;-87
2023/01/11 13:23:41;;;;;;;3.97;1.92;;;12.10;99.90;;;;;;5013387;28;20026;-87
2023/01/11 13:26:29;;;;;;;7.78;2.38;;;12.10;99.90;;;;;;5012985;28;20034;-87
2023/01/11 13:29:14;;;;;;;6.47;2.40;;;12.10;99.90;;;;;;5012581;28;20104;-88
2023/01/11 13:31:44;;;;;;;6.68;2.20;;;12.20;99.90;;;;;;5012651;28;20030;-85
2023/01/11 13:34:19;;;;;;;10.60;2.42;;;12.20;99.90;;;;;;5012791;28;20093;-84
2023/01/11 13:36:52;;;;;;;6.72;2.00;;;12.20;99.90;;;;;;5011662;28;20033;-84
2023/01/11 13:39:45;;;;;;;9.77;2.20;;;12.20;99.90;;;;;;5013249;28;20022;-84
2023/01/11 13:42:19;;;;;;;7.15;2.28;;;12.20;99.90;;;;;;5012353;28;20037;-83
2023/01/11 13:45:02;;;;;;;6.28;2.40;;;12.30;99.90;;;;;;5012866;28;20030;-84
2023/01/11 13:47:38;;;;;;;14.30;3.10;;;12.40;99.90;;;;;;5010639;28;20100;-83